Bookmark and Share
Track history (hours):
 

Ulusoy 7

Last reported at 2013-Nov-17 19:14 UTC. Time now 2014-Apr-19 06:55 UTC.
Position N 37°48' E 025°38'.
Warning: this ship's position is months out of date.

Length 183 m; draft 7.1 m.

Type: Cargo ship. MMSI: 271000373.

NotesDate/timePositionNaut miles runAvg speedWind from/ knotsBaromVisibWave heightAir tempDewpointWater temp
2013-Nov-17 19:14N 37°48' E 025°38'913.5
2013-Nov-17 18:33N 37°42' E 025°30'1312.7
2013-Nov-17 17:33N 37°33' E 025°18'1212.2
2013-Nov-17 16:33N 37°25' E 025°07'1313.0
2013-Nov-17 15:33N 37°17' E 024°53'1313.4
2013-Nov-17 14:33N 37°09' E 024°40'1312.9
2013-Nov-17 13:34N 37°01' E 024°28'1312.9
2013-Nov-17 12:34N 36°55' E 024°14'1312.5
2013-Nov-17 11:33N 36°49' E 024°00'1712.5
2013-Nov-17 10:12N 36°39' E 023°43'  
2013-Nov-11 16:34N 36°37' E 023°40'1414.1
2013-Nov-11 15:33N 36°44' E 023°55'1514.5
2013-Nov-11 14:32N 36°53' E 024°10'1414.4
2013-Nov-11 13:33N 37°00' E 024°25'1414.4
2013-Nov-11 12:33N 37°09' E 024°40'1413.6
2013-Nov-11 11:33N 37°17' E 024°53'1414.0
2013-Nov-11 10:33N 37°26' E 025°07'1413.8
2013-Nov-11 09:32N 37°34' E 025°21'1313.5
2013-Nov-11 08:34N 37°44' E 025°33'  

Dump ship's entire track history

sailing weather and tide predictions

Ulusoy 7 — TCTY — position and weather